Norwegian Crown — C6II4 — position and weather

sailwx.info

Track history (hours):
 
Tides and Currents Weather Stations Pressure Air Temp Water Temp Dewpoint Dewpoint Depression Visibility Wind Speed Wind Dir Waves Ship Positions

Norwegian Crown

Operator: Norwegian Cruise Line

Last reported at 2017-Mar-29 19:28 UTC. Time now 2017-Mar-30 04:54 UTC.
Position N 36°07' W 005°02'.

Type: Ship. MMSI: 308785000.

Date/timePositionNaut miles runAvg speedWind from/ knotsBaromVisibWave heightAir tempDewpointWater temp
2017-Mar-29 19:28N 36°07' W 005°02'1617.3
2017-Mar-29 18:33N 36°03' W 005°20'6 5.8
2017-Mar-29 17:28N 36°09' W 005°22'0 0.0
2017-Mar-29 13:10N 36°09' W 005°22'0 0.0
2017-Mar-29 12:25N 36°09' W 005°22'0 0.0
2017-Mar-29 11:25N 36°09' W 005°22'0 0.0
2017-Mar-29 10:28N 36°09' W 005°22'0 0.1
2017-Mar-29 09:33N 36°09' W 005°22'1010.5
2017-Mar-29 08:33N 35°59' W 005°25'15115.1
2017-Mar-28 22:33N 34°06' W 007°28'  
2017-Mar-25 22:33N 37°51' W 009°42'1515.0
2017-Mar-25 21:33N 38°05' W 009°34'1514.5
2017-Mar-25 20:33N 38°19' W 009°29'1313.1
2017-Mar-25 19:33N 38°31' W 009°25'1412.7
2017-Mar-25 18:29N 38°41' W 009°12'4 4.7
2017-Mar-25 17:34N 38°43' W 009°07'0 0.0
2017-Mar-25 16:31N 38°43' W 009°07'0 0.0
2017-Mar-25 15:34N 38°43' W 009°07'0 0.0
2017-Mar-25 14:34N 38°43' W 009°07'0 0.0
2017-Mar-25 13:34N 38°43' W 009°07'0 0.0
2017-Mar-25 12:34N 38°43' W 009°07'0 0.0
2017-Mar-25 11:31N 38°43' W 009°07'0 0.0
2017-Mar-25 10:34N 38°43' W 009°07'0 0.0
2017-Mar-25 09:31N 38°43' W 009°07'0 0.0
2017-Mar-25 08:34N 38°43' W 009°07'0 0.0
2017-Mar-25 07:32N 38°43' W 009°07'6 6.6
2017-Mar-25 06:33N 38°41' W 009°15'1111.2
2017-Mar-25 05:33N 38°37' W 009°29'1111.3
2017-Mar-25 04:33N 38°42' W 009°42'1413.9
2017-Mar-25 03:33N 38°56' W 009°43'1514.5
2017-Mar-25 02:31N 39°11' W 009°44'68014.5
2017-Mar-23 03:32N 49°41' W 003°45'1515.1
2017-Mar-23 02:33N 49°48' W 003°25'1515.1
2017-Mar-23 01:33N 49°56' W 003°05'1615.5
2017-Mar-23 00:33N 50°03' W 002°43'2416.4
2017-Mar-22 23:04N 50°09' W 002°07'916.9
2017-Mar-22 22:33N 50°11' W 001°53'2217.1
2017-Mar-22 21:16N 50°19' W 001°21'1216.9
2017-Mar-22 20:33N 50°26' W 001°06'1615.6
2017-Mar-22 19:33N 50°41' W 000°58'1312.6
2017-Mar-22 18:34N 50°46' W 001°16'9 8.6
2017-Mar-22 17:33N 50°53' W 001°24'1 0.7
2017-Mar-22 16:30N 50°54' W 001°25'0 0.0
2017-Mar-22 15:30N 50°54' W 001°25'0 0.0
2017-Mar-22 14:30N 50°54' W 001°25'0 0.0
2017-Mar-22 13:30N 50°54' W 001°25'0 0.0
2017-Mar-22 12:30N 50°54' W 001°25'0 0.0
2017-Mar-22 11:30N 50°54' W 001°25'0 0.0
2017-Mar-22 10:30N 50°54' W 001°25'0 0.0
2017-Mar-22 09:30N 50°54' W 001°25'0 0.0
2017-Mar-22 08:30N 50°54' W 001°25'0 0.0
2017-Mar-22 07:30N 50°54' W 001°25'0 0.0
2017-Mar-22 06:30N 50°54' W 001°25'0 0.0
2017-Mar-22 05:30N 50°54' W 001°25'1 1.2
2017-Mar-22 04:33N 50°53' W 001°24'9 8.5
2017-Mar-22 03:34N 50°46' W 001°16'1312.5
2017-Mar-22 02:33N 50°40' W 000°58'1612.4
2017-Mar-22 01:15N 50°27' W 001°13'1014.5
2017-Mar-22 00:31N 50°25' W 001°30'3917.2
2017-Mar-21 22:15N 50°13' W 002°28'1216.4
2017-Mar-21 21:31N 50°10' W 002°46'1616.3
2017-Mar-21 20:33N 50°05' W 003°09'1615.9
2017-Mar-21 19:33N 49°59' W 003°32'1616.3
2017-Mar-21 18:33N 49°52' W 003°55'  
Track history (hours):
 
Tides and Currents Weather Stations Pressure Air Temp Water Temp Dewpoint Dewpoint Depression Visibility Wind Speed Wind Dir Waves Ship Positions

Norwegian Crown

Operator: Norwegian Cruise Line

Last reported at 2017-Mar-29 19:28 UTC. Time now 2017-Mar-30 04:54 UTC.
Position N 36°07' W 005°02'.

Type: Ship. MMSI: 308785000.

Date/timePositionNaut miles runAvg speedWind from/ knotsBaromVisibWave heightAir tempDewpointWater temp
2017-Mar-29 19:28N 36°07' W 005°02'1617.3
2017-Mar-29 18:33N 36°03' W 005°20'6 5.8
2017-Mar-29 17:28N 36°09' W 005°22'0 0.0
2017-Mar-29 13:10N 36°09' W 005°22'0 0.0
2017-Mar-29 12:25N 36°09' W 005°22'0 0.0
2017-Mar-29 11:25N 36°09' W 005°22'0 0.0
2017-Mar-29 10:28N 36°09' W 005°22'0 0.1
2017-Mar-29 09:33N 36°09' W 005°22'1010.5
2017-Mar-29 08:33N 35°59' W 005°25'15115.1
2017-Mar-28 22:33N 34°06' W 007°28'  
2017-Mar-25 22:33N 37°51' W 009°42'1515.0
2017-Mar-25 21:33N 38°05' W 009°34'1514.5
2017-Mar-25 20:33N 38°19' W 009°29'1313.1
2017-Mar-25 19:33N 38°31' W 009°25'1412.7
2017-Mar-25 18:29N 38°41' W 009°12'4 4.7
2017-Mar-25 17:34N 38°43' W 009°07'0 0.0
2017-Mar-25 16:31N 38°43' W 009°07'0 0.0
2017-Mar-25 15:34N 38°43' W 009°07'0 0.0
2017-Mar-25 14:34N 38°43' W 009°07'0 0.0
2017-Mar-25 13:34N 38°43' W 009°07'0 0.0
2017-Mar-25 12:34N 38°43' W 009°07'0 0.0
2017-Mar-25 11:31N 38°43' W 009°07'0 0.0
2017-Mar-25 10:34N 38°43' W 009°07'0 0.0
2017-Mar-25 09:31N 38°43' W 009°07'0 0.0
2017-Mar-25 08:34N 38°43' W 009°07'0 0.0
2017-Mar-25 07:32N 38°43' W 009°07'6 6.6
2017-Mar-25 06:33N 38°41' W 009°15'1111.2
2017-Mar-25 05:33N 38°37' W 009°29'1111.3
2017-Mar-25 04:33N 38°42' W 009°42'1413.9
2017-Mar-25 03:33N 38°56' W 009°43'1514.5
2017-Mar-25 02:31N 39°11' W 009°44'68014.5
2017-Mar-23 03:32N 49°41' W 003°45'1515.1
2017-Mar-23 02:33N 49°48' W 003°25'1515.1
2017-Mar-23 01:33N 49°56' W 003°05'1615.5
2017-Mar-23 00:33N 50°03' W 002°43'2416.4
2017-Mar-22 23:04N 50°09' W 002°07'916.9
2017-Mar-22 22:33N 50°11' W 001°53'2217.1
2017-Mar-22 21:16N 50°19' W 001°21'1216.9
2017-Mar-22 20:33N 50°26' W 001°06'1615.6
2017-Mar-22 19:33N 50°41' W 000°58'1312.6
2017-Mar-22 18:34N 50°46' W 001°16'9 8.6
2017-Mar-22 17:33N 50°53' W 001°24'1 0.7
2017-Mar-22 16:30N 50°54' W 001°25'0 0.0
2017-Mar-22 15:30N 50°54' W 001°25'0 0.0
2017-Mar-22 14:30N 50°54' W 001°25'0 0.0
2017-Mar-22 13:30N 50°54' W 001°25'0 0.0
2017-Mar-22 12:30N 50°54' W 001°25'0 0.0
2017-Mar-22 11:30N 50°54' W 001°25'0 0.0
2017-Mar-22 10:30N 50°54' W 001°25'0 0.0
2017-Mar-22 09:30N 50°54' W 001°25'0 0.0
2017-Mar-22 08:30N 50°54' W 001°25'0 0.0
2017-Mar-22 07:30N 50°54' W 001°25'0 0.0
2017-Mar-22 06:30N 50°54' W 001°25'0 0.0
2017-Mar-22 05:30N 50°54' W 001°25'1 1.2
2017-Mar-22 04:33N 50°53' W 001°24'9 8.5
2017-Mar-22 03:34N 50°46' W 001°16'1312.5
2017-Mar-22 02:33N 50°40' W 000°58'1612.4
2017-Mar-22 01:15N 50°27' W 001°13'1014.5
2017-Mar-22 00:31N 50°25' W 001°30'3917.2
2017-Mar-21 22:15N 50°13' W 002°28'1216.4
2017-Mar-21 21:31N 50°10' W 002°46'1616.3
2017-Mar-21 20:33N 50°05' W 003°09'1615.9
2017-Mar-21 19:33N 49°59' W 003°32'1616.3
2017-Mar-21 18:33N 49°52' W 003°55'  

Dump ship's entire track history